Time;durP1;ratioP1;P1;durP2;ratioP2;P2;SDS_P1;SDS_P2;PMS_P1;PMS_P2;Temp;Humidity;BMP_temperature;BMP_pressure;BME280_temperature;BME280_humidity;BME280_pressure;Samples;Min_cycle;Max_cycle;Signal;HPM_P1;HPM_P2
2022/06/21 00:01:55;;;;;;;2.60;1.20;;;;;;;;;;5051201;28;20067;-67
2022/06/21 00:04:21;;;;;;;3.55;1.45;;;;;;;;;;5051267;28;20515;-66
2022/06/21 00:06:48;;;;;;;1.10;1.00;;;;;;;;;;5051323;28;20053;-66
2022/06/21 00:09:15;;;;;;;1.10;1.00;;;;;;;;;;5051258;28;20127;-67
2022/06/21 00:11:41;;;;;;;1.75;1.20;;;;;;;;;;5049711;28;20057;-67
2022/06/21 00:14:08;;;;;;;2.25;1.27;;;;;;;;;;5065819;28;20094;-66
2022/06/21 00:16:35;;;;;;;2.45;1.30;;;;;;;;;;5071317;28;20044;-68
2022/06/21 00:19:02;;;;;;;3.50;1.30;;;;;;;;;;5069810;28;20140;-66
2022/06/21 00:21:34;;;;;;;1.30;1.17;;;;;;;;;;5063742;28;20060;-68
2022/06/21 00:24:01;;;;;;;1.00;0.93;;;;;;;;;;5070002;28;20044;-67
2022/06/21 00:26:29;;;;;;;1.17;1.08;;;;;;;;;;5055484;28;20409;-67
2022/06/21 00:28:56;;;;;;;3.05;1.30;;;;;;;;;;5051460;28;20053;-67
2022/06/21 00:31:26;;;;;;;2.45;1.17;;;;;;;;;;5067845;28;20044;-67
2022/06/21 00:33:53;;;;;;;1.45;0.90;;;;;;;;;;5057309;28;20403;-68
2022/06/21 00:36:24;;;;;;;2.30;1.10;;;;;;;;;;5073377;28;20052;-65
2022/06/21 00:38:52;;;;;;;1.20;1.10;;;;;;;;;;5074400;28;20063;-66
2022/06/21 00:41:25;;;;;;;1.77;1.23;;;;;;;;;;5057653;28;20053;-67
2022/06/21 00:43:52;;;;;;;;;;;;;;;;;;5038155;28;20049;-66
2022/06/21 00:46:37;;;;;;;1.20;1.10;;;;;;;;;;5053715;28;19931;-65
2022/06/21 00:49:23;;;;;;;2.08;1.08;;;;;;;;;;5070485;28;20103;-66
2022/06/21 00:51:51;;;;;;;1.23;1.10;;;;;;;;;;5056388;28;20060;-67
2022/06/21 00:54:24;;;;;;;1.60;1.30;;;;;;;;;;5056957;28;20045;-66
2022/06/21 00:56:57;;;;;;;1.38;1.15;;;;;;;;;;5057356;28;20087;-66
2022/06/21 00:59:26;;;;;;;1.60;1.50;;;;;;;;;;5053675;28;20084;-65
2022/06/21 01:01:58;;;;;;;1.83;1.30;;;;;;;;;;5074387;28;20049;-65
2022/06/21 01:04:53;;;;;;;1.73;1.50;;;;;;;;;;5074127;28;20056;-66
2022/06/21 01:07:20;;;;;;;4.50;1.50;;;;;;;;;;5070767;28;20052;-67
2022/06/21 01:09:52;;;;;;;0.98;0.88;;;;;;;;;;5071897;28;20499;-67
2022/06/21 01:12:26;;;;;;;2.15;1.30;;;;;;;;;;5052712;28;20055;-66
2022/06/21 01:14:59;;;;;;;2.35;1.40;;;;;;;;;;5053837;28;20523;-67
2022/06/21 01:17:26;;;;;;;2.47;1.20;;;;;;;;;;5036376;28;20068;-65
2022/06/21 01:20:06;;;;;;;2.13;1.30;;;;;;;;;;5052918;28;20052;-65
2022/06/21 01:22:47;;;;;;;1.95;1.10;;;;;;;;;;5052382;28;20056;-66
2022/06/21 01:25:51;;;;;;;1.58;1.48;;;;;;;;;;5071871;28;20503;-66
2022/06/21 01:28:18;;;;;;;1.25;1.15;;;;;;;;;;5073645;28;20060;-66
2022/06/21 01:30:51;;;;;;;2.50;1.33;;;;;;;;;;5062065;28;20060;-67
2022/06/21 01:33:28;;;;;;;2.25;1.38;;;;;;;;;;5036445;28;20057;-67
2022/06/21 01:35:56;;;;;;;2.28;1.48;;;;;;;;;;5053702;28;20052;-66
2022/06/21 01:38:28;;;;;;;1.77;1.30;;;;;;;;;;5052490;28;20126;-67
2022/06/21 01:41:00;;;;;;;2.40;1.65;;;;;;;;;;5052339;28;20045;-66
2022/06/21 01:43:28;;;;;;;2.70;1.48;;;;;;;;;;5052375;28;20049;-67
2022/06/21 01:45:57;;;;;;;1.30;1.20;;;;;;;;;;5052384;28;20049;-67
2022/06/21 01:48:26;;;;;;;2.33;1.40;;;;;;;;;;5052514;28;20274;-66
2022/06/21 01:50:56;;;;;;;2.22;1.48;;;;;;;;;;5049478;28;20094;-67
2022/06/21 01:53:23;;;;;;;2.17;1.65;;;;;;;;;;5053218;28;20056;-66
2022/06/21 01:56:02;;;;;;;2.50;1.92;;;;;;;;;;5052951;28;20049;-67
2022/06/21 01:58:31;;;;;;;1.85;1.30;;;;;;;;;;5042902;28;20048;-66
2022/06/21 02:01:00;;;;;;;1.48;1.33;;;;;;;;;;5036920;28;20110;-67
2022/06/21 02:03:32;;;;;;;2.50;1.77;;;;;;;;;;5038950;28;20102;-66
2022/06/21 02:06:05;;;;;;;1.23;1.10;;;;;;;;;;5071851;28;20123;-65
2022/06/21 02:08:38;;;;;;;1.63;1.30;;;;;;;;;;5059959;28;20177;-68
2022/06/21 02:11:05;;;;;;;;;;;;;;;;;;5073127;28;20056;-66
2022/06/21 02:13:33;;;;;;;1.50;1.40;;;;;;;;;;5071560;28;19970;-67
2022/06/21 02:16:09;;;;;;;2.97;1.42;;;;;;;;;;5042851;28;20557;-67
2022/06/21 02:18:43;;;;;;;1.50;1.40;;;;;;;;;;5036716;28;20139;-67
2022/06/21 02:21:24;;;;;;;2.83;1.40;;;;;;;;;;5046525;28;20098;-67
2022/06/21 02:23:53;;;;;;;1.80;1.70;;;;;;;;;;5071619;28;20051;-66
2022/06/21 02:26:20;;;;;;;3.15;1.60;;;;;;;;;;5071000;28;20048;-66
2022/06/21 02:28:47;;;;;;;2.33;1.60;;;;;;;;;;5046883;28;20483;-66
2022/06/21 02:31:13;;;;;;;2.72;1.38;;;;;;;;;;5034724;28;20052;-66
2022/06/21 02:33:40;;;;;;;2.00;1.50;;;;;;;;;;5052223;28;20057;-67
2022/06/21 02:36:13;;;;;;;2.20;1.65;;;;;;;;;;5047769;28;20049;-66
2022/06/21 02:38:49;;;;;;;1.50;1.40;;;;;;;;;;5054517;28;20491;-66
2022/06/21 02:41:28;;;;;;;2.60;1.38;;;;;;;;;;5057115;28;20056;-67
2022/06/21 02:44:01;;;;;;;1.33;1.23;;;;;;;;;;5058844;28;20056;-67
2022/06/21 02:46:32;;;;;;;2.28;1.20;;;;;;;;;;5035508;28;20045;-67
2022/06/21 02:49:03;;;;;;;1.90;1.80;;;;;;;;;;5063906;28;20499;-67
2022/06/21 02:51:32;;;;;;;2.50;1.40;;;;;;;;;;5054612;28;20048;-67
2022/06/21 02:53:58;;;;;;;2.75;1.30;;;;;;;;;;5054092;28;20101;-67
2022/06/21 02:56:30;;;;;;;2.78;1.40;;;;;;;;;;5069395;28;20144;-67
2022/06/21 02:58:58;;;;;;;2.53;1.40;;;;;;;;;;5053947;28;20048;-67
2022/06/21 03:01:30;;;;;;;2.38;1.52;;;;;;;;;;5054208;28;20510;-67
2022/06/21 03:03:57;;;;;;;2.55;1.50;;;;;;;;;;5054869;28;20053;-67
2022/06/21 03:06:24;;;;;;;2.88;1.75;;;;;;;;;;5054231;28;20040;-67
2022/06/21 03:12:32;;;;;;;1.58;1.33;;;;;;;;;;5071797;28;20047;-67
2022/06/21 03:15:05;;;;;;;2.33;1.70;;;;;;;;;;5067485;28;20045;-67
2022/06/21 03:17:41;;;;;;;1.60;1.40;;;;;;;;;;5044821;28;20051;-67
2022/06/21 03:20:14;;;;;;;1.50;1.38;;;;;;;;;;5066635;28;20117;-67
2022/06/21 03:22:41;;;;;;;3.22;1.75;;;;;;;;;;5071652;28;20052;-67
2022/06/21 03:25:16;;;;;;;3.47;1.75;;;;;;;;;;5065901;28;20053;-67
2022/06/21 03:27:57;;;;;;;3.53;1.67;;;;;;;;;;5036573;28;20131;-67
2022/06/21 03:30:28;;;;;;;3.40;2.00;;;;;;;;;;5071836;28;20045;-67
2022/06/21 03:32:55;;;;;;;2.72;1.77;;;;;;;;;;5057588;28;20049;-67
2022/06/21 03:35:21;;;;;;;3.28;1.83;;;;;;;;;;5051763;28;20111;-67
2022/06/21 03:37:48;;;;;;;2.60;2.25;;;;;;;;;;5053625;28;20041;-67
2022/06/21 03:43:13;;;;;;;2.95;1.60;;;;;;;;;;5036784;28;20103;-68
2022/06/21 03:45:40;;;;;;;1.80;1.50;;;;;;;;;;5043558;28;20059;-67
2022/06/21 03:48:14;;;;;;;3.60;2.15;;;;;;;;;;5053624;28;20072;-67
2022/06/21 03:51:03;;;;;;;2.90;2.00;;;;;;;;;;5054285;28;20053;-67
2022/06/21 03:53:38;;;;;;;1.83;1.40;;;;;;;;;;5050218;28;20099;-67
2022/06/21 03:56:15;;;;;;;2.17;1.27;;;;;;;;;;5055492;28;20473;-68
2022/06/21 03:58:56;;;;;;;2.10;1.77;;;;;;;;;;5070325;28;20048;-67
2022/06/21 04:01:25;;;;;;;5.28;1.55;;;;;;;;;;5071414;28;20049;-67
2022/06/21 04:04:05;;;;;;;1.75;1.58;;;;;;;;;;5070544;28;20495;-67
2022/06/21 04:06:41;;;;;;;7.32;1.95;;;;;;;;;;5071752;28;20460;-66
2022/06/21 04:09:13;;;;;;;2.08;1.70;;;;;;;;;;5074095;28;20064;-67
2022/06/21 04:11:47;;;;;;;1.77;1.25;;;;;;;;;;5057593;28;20122;-67
2022/06/21 04:14:58;;;;;;;3.80;1.67;;;;;;;;;;5061015;28;20495;-67
2022/06/21 04:17:28;;;;;;;1.98;1.60;;;;;;;;;;5032701;28;20052;-67
2022/06/21 04:19:58;;;;;;;1.48;1.38;;;;;;;;;;5032682;28;20053;-67
2022/06/21 04:22:39;;;;;;;1.50;1.40;;;;;;;;;;5030281;28;20163;-68
2022/06/21 04:25:39;;;;;;;2.55;1.70;;;;;;;;;;5057232;28;20143;-67
2022/06/21 04:28:20;;;;;;;2.67;1.50;;;;;;;;;;5055158;28;20052;-67
2022/06/21 04:30:48;;;;;;;3.80;1.80;;;;;;;;;;5058529;28;20052;-67
2022/06/21 04:33:19;;;;;;;3.33;1.80;;;;;;;;;;5086539;28;20105;-67
2022/06/21 04:36:38;;;;;;;2.38;1.40;;;;;;;;;;5053637;28;20106;-67
2022/06/21 04:39:24;;;;;;;4.68;1.70;;;;;;;;;;5046168;28;20052;-68
2022/06/21 04:41:56;;;;;;;5.07;1.60;;;;;;;;;;5060357;28;20051;-67
2022/06/21 04:44:31;;;;;;;6.03;1.52;;;;;;;;;;5074642;28;20049;-68
2022/06/21 04:47:26;;;;;;;4.85;1.67;;;;;;;;;;5057480;28;20059;-67
2022/06/21 04:50:28;;;;;;;4.47;1.38;;;;;;;;;;5057971;28;20048;-67
2022/06/21 04:53:00;;;;;;;3.17;1.55;;;;;;;;;;5060885;28;20511;-67
2022/06/21 04:55:34;;;;;;;4.65;1.55;;;;;;;;;;5073318;28;20530;-67
2022/06/21 04:58:01;;;;;;;5.25;1.83;;;;;;;;;;5071768;28;20052;-67
2022/06/21 05:00:27;;;;;;;3.40;1.48;;;;;;;;;;5074351;28;20052;-67
2022/06/21 05:03:00;;;;;;;4.88;1.60;;;;;;;;;;5072861;28;20056;-67
2022/06/21 05:05:33;;;;;;;2.33;1.42;;;;;;;;;;5074231;28;20060;-68
2022/06/21 05:08:15;;;;;;;4.70;1.30;;;;;;;;;;5073311;28;20102;-67
2022/06/21 05:10:44;;;;;;;2.95;1.60;;;;;;;;;;5053086;28;20106;-67
2022/06/21 05:13:35;;;;;;;3.80;1.33;;;;;;;;;;5053166;28;20102;-68
2022/06/21 05:16:06;;;;;;;3.17;1.58;;;;;;;;;;5059632;28;20049;-68
2022/06/21 05:18:41;;;;;;;3.83;1.42;;;;;;;;;;5052495;28;20053;-68
2022/06/21 05:21:16;;;;;;;4.90;1.90;;;;;;;;;;5052660;28;20059;-68
2022/06/21 05:23:43;;;;;;;5.55;1.63;;;;;;;;;;5061020;28;20044;-68
2022/06/21 05:26:14;;;;;;;4.13;1.48;;;;;;;;;;5052754;28;20053;-69
2022/06/21 05:28:49;;;;;;;3.55;1.50;;;;;;;;;;5058241;28;20552;-68
2022/06/21 05:31:20;;;;;;;2.53;1.50;;;;;;;;;;5056603;28;20048;-68
2022/06/21 05:33:49;;;;;;;5.97;2.08;;;;;;;;;;5072463;28;20131;-68
2022/06/21 05:36:23;;;;;;;3.60;1.85;;;;;;;;;;5056143;28;20048;-68
2022/06/21 05:38:57;;;;;;;4.70;1.73;;;;;;;;;;5046734;28;20095;-68
2022/06/21 05:41:31;;;;;;;2.85;1.88;;;;;;;;;;5050641;28;20200;-68
2022/06/21 05:44:35;;;;;;;4.40;1.70;;;;;;;;;;5057940;28;20049;-68
2022/06/21 05:47:21;;;;;;;4.35;1.65;;;;;;;;;;5072074;28;20094;-67
2022/06/21 05:49:48;;;;;;;3.47;1.45;;;;;;;;;;5071673;28;20071;-68
2022/06/21 05:52:19;;;;;;;2.50;1.33;;;;;;;;;;5069949;28;20060;-69
2022/06/21 05:54:52;;;;;;;3.10;1.75;;;;;;;;;;5067515;28;20044;-68
2022/06/21 05:57:22;;;;;;;2.53;1.70;;;;;;;;;;5070242;28;20056;-68
2022/06/21 05:59:49;;;;;;;4.20;1.35;;;;;;;;;;5053780;28;20350;-68
2022/06/21 06:02:33;;;;;;;4.97;1.52;;;;;;;;;;5060920;28;20055;-67
2022/06/21 06:05:14;;;;;;;3.22;1.25;;;;;;;;;;5046989;28;20136;-68
2022/06/21 06:08:11;;;;;;;5.05;1.30;;;;;;;;;;5049635;28;20048;-70
2022/06/21 06:10:40;;;;;;;2.80;1.35;;;;;;;;;;5057293;28;20044;-70
2022/06/21 06:13:16;;;;;;;5.03;1.38;;;;;;;;;;5055719;28;20060;-70
2022/06/21 06:15:50;;;;;;;3.40;1.45;;;;;;;;;;5060140;28;20113;-69
2022/06/21 06:18:24;;;;;;;2.90;1.65;;;;;;;;;;5039558;28;20040;-69
2022/06/21 06:21:11;;;;;;;3.30;1.23;;;;;;;;;;5057505;28;20495;-69
2022/06/21 06:23:42;;;;;;;3.15;1.70;;;;;;;;;;5061229;28;20545;-69
2022/06/21 06:26:20;;;;;;;2.67;1.48;;;;;;;;;;5040856;28;20140;-70
2022/06/21 06:28:51;;;;;;;3.97;1.23;;;;;;;;;;5055022;28;20534;-69
2022/06/21 06:31:32;;;;;;;4.70;1.30;;;;;;;;;;5055026;28;20118;-69
2022/06/21 06:34:01;;;;;;;6.75;1.55;;;;;;;;;;5058534;28;20400;-69
2022/06/21 06:36:33;;;;;;;4.40;1.13;;;;;;;;;;5054439;28;20052;-69
2022/06/21 06:39:00;;;;;;;3.63;1.33;;;;;;;;;;5042410;28;20052;-69
2022/06/21 06:41:39;;;;;;;3.88;1.30;;;;;;;;;;5059622;28;20552;-69
2022/06/21 06:44:12;;;;;;;3.45;1.33;;;;;;;;;;5053803;28;20443;-69
2022/06/21 06:46:47;;;;;;;2.17;1.38;;;;;;;;;;5057458;28;20052;-69
2022/06/21 06:49:28;;;;;;;2.92;1.45;;;;;;;;;;5055540;28;20094;-69
2022/06/21 06:52:04;;;;;;;2.15;1.13;;;;;;;;;;5059514;28;20118;-70
2022/06/21 06:54:54;;;;;;;3.38;1.15;;;;;;;;;;5060680;28;20110;-68
2022/06/21 06:57:32;;;;;;;1.98;1.20;;;;;;;;;;5057954;28;20518;-70
2022/06/21 07:00:00;;;;;;;2.33;1.20;;;;;;;;;;5058833;28;20110;-69
2022/06/21 07:02:35;;;;;;;4.07;1.58;;;;;;;;;;5060536;28;20044;-69
2022/06/21 07:05:13;;;;;;;2.65;1.27;;;;;;;;;;5037931;28;20049;-69
2022/06/21 07:07:46;;;;;;;2.60;1.30;;;;;;;;;;5059943;28;20048;-69
2022/06/21 07:10:19;;;;;;;2.72;1.30;;;;;;;;;;5058897;28;20504;-68
2022/06/21 07:12:45;;;;;;;2.55;1.30;;;;;;;;;;5057653;28;20117;-69
2022/06/21 07:15:12;;;;;;;1.65;1.08;;;;;;;;;;5046488;28;20454;-68
2022/06/21 07:17:51;;;;;;;5.00;1.30;;;;;;;;;;5055109;28;20044;-66
2022/06/21 07:20:30;;;;;;;4.10;1.70;;;;;;;;;;5058302;28;20118;-66
2022/06/21 07:22:57;;;;;;;2.95;1.05;;;;;;;;;;5053310;28;20197;-67
2022/06/21 07:25:36;;;;;;;3.58;1.38;;;;;;;;;;5056107;28;20219;-67
2022/06/21 07:28:22;;;;;;;2.67;1.20;;;;;;;;;;5056843;28;20053;-68
2022/06/21 07:30:52;;;;;;;2.92;1.33;;;;;;;;;;5055919;28;20044;-69
2022/06/21 07:33:24;;;;;;;4.85;1.20;;;;;;;;;;5039784;28;20103;-76
2022/06/21 07:35:56;;;;;;;3.88;1.40;;;;;;;;;;5056488;28;20048;-66
2022/06/21 07:38:35;;;;;;;5.13;1.40;;;;;;;;;;5039663;28;20045;-69
2022/06/21 07:41:07;;;;;;;4.32;1.10;;;;;;;;;;5064203;28;20049;-67
2022/06/21 07:43:40;;;;;;;4.05;1.35;;;;;;;;;;5066111;28;20044;-68
2022/06/21 07:46:09;;;;;;;3.63;1.73;;;;;;;;;;5059933;28;20500;-67
2022/06/21 07:48:51;;;;;;;1.73;0.88;;;;;;;;;;5051183;28;20136;-68
2022/06/21 07:51:20;;;;;;;2.45;1.10;;;;;;;;;;5063444;28;20049;-70
2022/06/21 07:54:01;;;;;;;1.98;1.30;;;;;;;;;;5047875;28;20051;-70
2022/06/21 07:56:50;;;;;;;6.00;1.45;;;;;;;;;;5078239;28;20494;-71
2022/06/21 07:59:36;;;;;;;2.80;1.30;;;;;;;;;;5064781;28;20052;-73
2022/06/21 08:07:47;;;;;;;3.08;1.13;;;;;;;;;;5062436;28;20044;-73
2022/06/21 08:10:19;;;;;;;3.55;1.75;;;;;;;;;;5048139;28;20472;-72
2022/06/21 08:12:47;;;;;;;;;;;;;;;;;;5068908;28;20107;-67
2022/06/21 08:15:13;;;;;;;2.80;1.20;;;;;;;;;;5060101;28;19932;-67
2022/06/21 08:17:43;;;;;;;2.25;1.35;;;;;;;;;;5060381;28;20044;-67
2022/06/21 08:20:40;;;;;;;2.42;1.20;;;;;;;;;;5064163;28;20063;-67
2022/06/21 08:23:18;;;;;;;1.45;1.00;;;;;;;;;;5062601;28;20518;-67
2022/06/21 08:25:54;;;;;;;2.55;1.10;;;;;;;;;;5062337;28;20048;-67
2022/06/21 08:28:43;;;;;;;1.92;1.20;;;;;;;;;;5063609;28;20045;-75
2022/06/21 08:31:16;;;;;;;4.35;1.25;;;;;;;;;;5063295;28;20174;-74
2022/06/21 08:33:54;;;;;;;1.85;1.20;;;;;;;;;;5064281;28;20125;-75
2022/06/21 08:36:30;;;;;;;4.53;1.48;;;;;;;;;;5044082;28;20059;-72
2022/06/21 08:39:07;;;;;;;3.03;1.52;;;;;;;;;;5061916;28;20099;-73
2022/06/21 08:41:55;;;;;;;3.22;1.27;;;;;;;;;;5082662;22;20517;-71
2022/06/21 08:45:40;;;;;;;3.55;1.00;;;;;;;;;;5063867;28;20056;-72
2022/06/21 08:47:55;;;;;;;1.20;1.10;;;;;;;;;;5064469;28;20048;-70
2022/06/21 08:50:28;;;;;;;1.98;1.38;;;;;;;;;;5059228;28;20494;-71
2022/06/21 08:53:08;;;;;;;3.17;1.10;;;;;;;;;;5060701;28;20503;-73
2022/06/21 08:55:44;;;;;;;2.67;1.30;;;;;;;;;;5059351;28;20052;-72
2022/06/21 08:58:33;;;;;;;3.75;1.27;;;;;;;;;;5061904;28;20056;-71
2022/06/21 09:01:24;;;;;;;4.20;1.23;;;;;;;;;;5065664;28;20057;-71
2022/06/21 09:04:12;;;;;;;2.47;1.00;;;;;;;;;;5062237;28;20426;-71
2022/06/21 09:07:02;;;;;;;3.97;1.40;;;;;;;;;;5059679;28;20048;-71
2022/06/21 09:09:43;;;;;;;6.35;1.27;;;;;;;;;;5063203;28;20055;-66
2022/06/21 09:13:01;;;;;;;1.50;1.30;;;;;;;;;;5059227;28;20479;-66
2022/06/21 09:16:05;;;;;;;2.55;1.27;;;;;;;;;;5049407;28;20325;-70
2022/06/21 09:19:04;;;;;;;;;;;;;;;;;;5071451;28;20041;-74
2022/06/21 09:21:54;;;;;;;3.50;1.10;;;;;;;;;;5041474;28;19924;-74
2022/06/21 09:24:39;;;;;;;3.63;1.40;;;;;;;;;;5061841;28;20056;-70
2022/06/21 09:27:14;;;;;;;2.03;1.20;;;;;;;;;;5063756;28;20056;-72
2022/06/21 09:29:51;;;;;;;2.10;1.15;;;;;;;;;;5060085;28;20434;-73
2022/06/21 09:32:30;;;;;;;4.68;1.30;;;;;;;;;;5061849;28;20518;-78
2022/06/21 09:35:09;;;;;;;2.90;1.65;;;;;;;;;;5064290;28;20575;-77
2022/06/21 09:37:57;;;;;;;;;;;;;;;;;;5065494;28;20419;-76
2022/06/21 09:40:33;;;;;;;2.45;1.33;;;;;;;;;;5063079;28;19989;-80
2022/06/21 09:43:34;;;;;;;4.00;1.67;;;;;;;;;;5049472;28;20052;-75
2022/06/21 09:46:35;;;;;;;2.60;1.30;;;;;;;;;;5061561;28;20489;-71
2022/06/21 09:49:04;;;;;;;3.25;1.55;;;;;;;;;;5057975;28;20480;-72
2022/06/21 09:51:53;;;;;;;2.58;1.40;;;;;;;;;;5060645;28;20518;-75
2022/06/21 09:54:37;;;;;;;2.20;1.33;;;;;;;;;;5061580;28;20449;-72
2022/06/21 09:57:41;;;;;;;2.83;1.20;;;;;;;;;;5060168;28;20098;-71
2022/06/21 10:00:22;;;;;;;3.95;1.30;;;;;;;;;;5061074;28;20048;-72
2022/06/21 10:03:07;;;;;;;3.38;1.17;;;;;;;;;;5060313;28;20055;-70
2022/06/21 10:05:43;;;;;;;3.83;1.40;;;;;;;;;;5061872;28;20041;-72
2022/06/21 10:08:10;;;;;;;2.28;1.20;;;;;;;;;;5061190;28;20470;-73
2022/06/21 10:10:45;;;;;;;6.80;2.17;;;;;;;;;;5062608;28;20052;-73
2022/06/21 10:13:57;;;;;;;2.55;1.33;;;;;;;;;;5059470;28;20053;-69
2022/06/21 10:16:29;;;;;;;2.45;1.50;;;;;;;;;;5012066;28;20385;-69
2022/06/21 10:19:15;;;;;;;4.73;1.60;;;;;;;;;;5051642;28;20052;-69
2022/06/21 10:22:05;;;;;;;4.22;1.70;;;;;;;;;;5058041;28;20295;-68
2022/06/21 10:24:52;;;;;;;3.80;1.42;;;;;;;;;;5073325;28;20053;-69
2022/06/21 10:27:34;;;;;;;3.92;1.52;;;;;;;;;;5061004;28;20064;-69
2022/06/21 10:30:11;;;;;;;2.58;1.50;;;;;;;;;;5062267;28;20078;-69
2022/06/21 10:32:57;;;;;;;1.90;1.40;;;;;;;;;;5057439;28;20061;-69
2022/06/21 10:35:30;;;;;;;2.90;1.50;;;;;;;;;;5058159;28;20052;-69
2022/06/21 10:38:18;;;;;;;3.00;1.77;;;;;;;;;;5058042;28;20053;-69
2022/06/21 10:41:04;;;;;;;2.13;1.70;;;;;;;;;;5059865;28;20248;-69
2022/06/21 10:43:51;;;;;;;6.40;1.63;;;;;;;;;;5061693;28;20165;-68
2022/06/21 10:46:32;;;;;;;3.70;1.73;;;;;;;;;;5042817;28;20102;-69
2022/06/21 10:49:20;;;;;;;3.63;1.60;;;;;;;;;;5058087;28;20556;-69
2022/06/21 10:51:57;;;;;;;2.65;1.60;;;;;;;;;;5057537;28;20130;-69
2022/06/21 10:55:01;;;;;;;3.90;1.80;;;;;;;;;;5059848;28;20487;-69
2022/06/21 10:57:49;;;;;;;3.65;2.00;;;;;;;;;;5057450;28;20049;-69
2022/06/21 11:03:32;;;;;;;4.03;1.50;;;;;;;;;;5059278;28;20127;-69
2022/06/21 11:06:01;;;;;;;4.00;1.77;;;;;;;;;;5060308;28;20083;-69
2022/06/21 11:08:52;;;;;;;5.63;1.80;;;;;;;;;;5057624;28;20044;-69
2022/06/21 11:11:21;;;;;;;3.47;1.80;;;;;;;;;;5063747;28;20461;-69
2022/06/21 11:14:11;;;;;;;2.95;1.55;;;;;;;;;;5064601;28;20469;-69
2022/06/21 11:17:09;;;;;;;3.95;1.80;;;;;;;;;;5063598;28;20463;-69
2022/06/21 11:19:45;;;;;;;4.13;1.85;;;;;;;;;;5042384;28;20459;-69
2022/06/21 11:22:26;;;;;;;3.00;1.50;;;;;;;;;;5058946;28;20060;-69
2022/06/21 11:25:16;;;;;;;3.53;1.70;;;;;;;;;;5057336;28;20537;-69
2022/06/21 11:27:48;;;;;;;2.15;1.60;;;;;;;;;;5057132;28;20053;-69
2022/06/21 11:30:37;;;;;;;3.15;1.67;;;;;;;;;;5055595;28;20055;-69
2022/06/21 11:33:04;;;;;;;3.60;1.70;;;;;;;;;;5058513;28;20080;-69
2022/06/21 11:35:49;;;;;;;3.40;1.70;;;;;;;;;;5058754;28;20398;-69
2022/06/21 11:38:15;;;;;;;2.83;1.90;;;;;;;;;;5042182;28;20056;-69
2022/06/21 11:40:59;;;;;;;2.90;1.80;;;;;;;;;;5058261;28;20044;-69
2022/06/21 11:43:44;;;;;;;1.88;1.60;;;;;;;;;;5061631;28;20433;-69
2022/06/21 11:46:21;;;;;;;1.98;1.65;;;;;;;;;;5058243;28;20052;-69
2022/06/21 11:49:18;;;;;;;5.65;2.20;;;;;;;;;;5056866;28;20095;-69
2022/06/21 11:52:12;;;;;;;4.78;1.67;;;;;;;;;;5061817;28;20048;-69
2022/06/21 11:54:45;;;;;;;3.85;1.75;;;;;;;;;;5060157;28;20060;-69
2022/06/21 11:57:36;;;;;;;3.42;1.75;;;;;;;;;;5062976;28;20052;-69
2022/06/21 12:00:08;;;;;;;3.20;1.88;;;;;;;;;;5064328;28;20494;-69
2022/06/21 12:02:57;;;;;;;4.88;2.30;;;;;;;;;;5057354;28;20040;-69
2022/06/21 12:05:51;;;;;;;4.07;2.35;;;;;;;;;;5058282;28;20053;-69
2022/06/21 12:08:23;;;;;;;4.78;1.88;;;;;;;;;;5055945;28;20048;-69
2022/06/21 12:11:02;;;;;;;3.67;2.20;;;;;;;;;;5057878;28;20056;-68
2022/06/21 12:14:04;;;;;;;3.03;1.90;;;;;;;;;;5063359;28;20457;-68
2022/06/21 12:17:12;;;;;;;4.78;1.80;;;;;;;;;;5058427;28;20508;-69
2022/06/21 12:19:41;;;;;;;3.03;1.98;;;;;;;;;;5057953;28;20494;-69
2022/06/21 12:22:28;;;;;;;2.15;1.95;;;;;;;;;;5044094;28;20422;-69
2022/06/21 12:24:55;;;;;;;3.45;1.92;;;;;;;;;;5058690;28;20424;-69
2022/06/21 12:27:22;;;;;;;2.40;2.00;;;;;;;;;;5057243;28;20057;-68
2022/06/21 12:29:48;;;;;;;3.17;1.90;;;;;;;;;;5064276;28;20040;-68
2022/06/21 12:32:22;;;;;;;5.35;2.10;;;;;;;;;;5061620;28;20499;-68
2022/06/21 12:35:01;;;;;;;4.53;2.30;;;;;;;;;;5060998;28;20402;-68
2022/06/21 12:37:31;;;;;;;4.30;2.10;;;;;;;;;;5047772;28;20049;-68
2022/06/21 12:40:11;;;;;;;4.38;2.20;;;;;;;;;;5059513;28;20522;-68
2022/06/21 12:42:47;;;;;;;6.18;2.65;;;;;;;;;;5061381;28;20053;-68
2022/06/21 12:45:40;;;;;;;6.38;2.00;;;;;;;;;;5061402;28;20055;-68
2022/06/21 12:48:44;;;;;;;3.58;2.25;;;;;;;;;;5062726;28;20049;-68
2022/06/21 12:51:33;;;;;;;4.28;2.35;;;;;;;;;;5061535;28;20040;-68
2022/06/21 12:54:34;;;;;;;2.53;2.17;;;;;;;;;;5062569;28;20512;-69
2022/06/21 12:57:07;;;;;;;6.97;2.75;;;;;;;;;;5062832;28;20048;-69
2022/06/21 12:59:35;;;;;;;2.83;2.15;;;;;;;;;;5059908;28;20457;-70
2022/06/21 13:02:30;;;;;;;3.47;2.25;;;;;;;;;;5061387;28;20064;-69
2022/06/21 13:05:38;;;;;;;4.05;2.38;;;;;;;;;;5062881;28;20057;-68
2022/06/21 13:08:30;;;;;;;4.82;2.05;;;;;;;;;;5027696;28;20091;-69
2022/06/21 13:11:14;;;;;;;6.57;2.65;;;;;;;;;;5049052;28;20450;-68
2022/06/21 13:14:10;;;;;;;5.95;2.78;;;;;;;;;;5062708;28;20055;-68
2022/06/21 13:17:01;;;;;;;3.25;2.25;;;;;;;;;;5061798;28;20055;-69
2022/06/21 13:19:58;;;;;;;3.43;2.10;;;;;;;;;;5062159;28;20088;-68
2022/06/21 13:22:35;;;;;;;2.78;2.40;;;;;;;;;;5062369;28;20052;-69
2022/06/21 13:25:01;;;;;;;4.82;2.42;;;;;;;;;;5063291;28;20044;-68
2022/06/21 13:27:34;;;;;;;4.38;2.10;;;;;;;;;;5059119;28;20052;-69
2022/06/21 13:30:32;;;;;;;2.40;2.17;;;;;;;;;;5062096;28;20044;-69
2022/06/21 13:33:11;;;;;;;6.20;2.05;;;;;;;;;;5049252;28;20048;-69
2022/06/21 13:35:56;;;;;;;6.82;2.83;;;;;;;;;;5058776;28;20497;-68
2022/06/21 13:38:38;;;;;;;5.10;2.53;;;;;;;;;;5043108;28;20093;-69
2022/06/21 13:44:39;;;;;;;2.85;2.15;;;;;;;;;;5047674;28;20052;-69
2022/06/21 13:47:23;;;;;;;2.40;1.90;;;;;;;;;;5062782;28;20522;-69
2022/06/21 13:50:01;;;;;;;5.45;2.38;;;;;;;;;;5063035;28;20102;-69
2022/06/21 13:53:05;;;;;;;4.63;2.42;;;;;;;;;;5056697;28;20049;-68
2022/06/21 13:55:57;;;;;;;5.15;2.70;;;;;;;;;;5041074;28;20053;-69
2022/06/21 13:58:38;;;;;;;3.80;2.08;;;;;;;;;;5057284;28;20045;-68
2022/06/21 14:01:12;;;;;;;5.33;2.43;;;;;;;;;;5066772;28;20055;-68
2022/06/21 14:04:05;;;;;;;4.65;2.33;;;;;;;;;;5058848;28;20299;-68
2022/06/21 14:06:40;;;;;;;4.03;2.25;;;;;;;;;;5062499;28;20059;-69
2022/06/21 14:09:28;;;;;;;6.88;2.33;;;;;;;;;;5060646;28;20045;-68
2022/06/21 14:12:17;;;;;;;3.67;2.35;;;;;;;;;;5056907;28;20507;-69
2022/06/21 14:15:09;;;;;;;3.53;2.40;;;;;;;;;;5056648;28;20044;-69
2022/06/21 14:17:37;;;;;;;;;;;;;;;;;;5052684;28;20052;-68
2022/06/21 14:20:37;;;;;;;3.42;2.10;;;;;;;;;;5060708;28;19990;-68
2022/06/21 14:23:18;;;;;;;3.25;2.40;;;;;;;;;;5062492;28;20048;-68
2022/06/21 14:25:55;;;;;;;5.15;2.35;;;;;;;;;;5057679;28;20048;-69
2022/06/21 14:28:32;;;;;;;3.67;2.33;;;;;;;;;;5056619;28;20055;-69
2022/06/21 14:30:59;;;;;;;3.70;2.05;;;;;;;;;;5063125;28;20049;-69
2022/06/21 14:33:59;;;;;;;6.82;2.92;;;;;;;;;;5062276;28;20048;-69
2022/06/21 14:36:56;;;;;;;4.90;2.50;;;;;;;;;;5047677;28;20049;-69
2022/06/21 14:39:37;;;;;;;3.97;2.70;;;;;;;;;;5051368;28;20041;-70
2022/06/21 14:42:25;;;;;;;4.70;2.30;;;;;;;;;;5065674;22;20053;-65
2022/06/21 14:45:00;;;;;;;5.53;2.40;;;;;;;;;;5053317;28;20102;-66
2022/06/21 14:47:31;;;;;;;8.32;3.20;;;;;;;;;;5045973;28;20503;-66
2022/06/21 14:50:24;;;;;;;6.95;3.00;;;;;;;;;;5045294;28;20060;-66
2022/06/21 14:53:27;;;;;;;5.40;2.97;;;;;;;;;;4988463;28;20050;-66
2022/06/21 14:56:00;;;;;;;2.75;2.25;;;;;;;;;;5019094;28;20046;-67
2022/06/21 14:58:55;;;;;;;6.63;3.10;;;;;;;;;;5019132;28;20048;-66
2022/06/21 15:01:43;;;;;;;7.60;2.95;;;;;;;;;;5022853;28;20041;-66
2022/06/21 15:04:32;;;;;;;4.15;2.45;;;;;;;;;;5018077;28;20057;-66
2022/06/21 15:07:08;;;;;;;16.13;13.57;;;;;;;;;;5018367;28;20045;-66
2022/06/21 15:09:43;;;;;;;6.13;4.75;;;;;;;;;;5021917;28;20045;-67
2022/06/21 15:12:12;;;;;;;4.22;3.10;;;;;;;;;;5023635;28;20076;-67
2022/06/21 15:15:00;;;;;;;4.65;2.88;;;;;;;;;;5005780;28;20396;-67
2022/06/21 15:17:40;;;;;;;3.33;2.50;;;;;;;;;;5023972;28;20054;-67
2022/06/21 15:20:23;;;;;;;4.63;2.83;;;;;;;;;;5021693;28;20045;-67
2022/06/21 15:23:10;;;;;;;4.07;3.00;;;;;;;;;;5025745;28;20505;-67
2022/06/21 15:25:59;;;;;;;6.22;3.28;;;;;;;;;;5020632;28;20053;-67
2022/06/21 15:28:31;;;;;;;4.20;2.70;;;;;;;;;;5035025;28;20112;-67
2022/06/21 15:30:58;;;;;;;3.97;3.65;;;;;;;;;;5020857;28;20057;-67
2022/06/21 15:33:28;;;;;;;3.67;3.22;;;;;;;;;;5024277;28;20050;-67
2022/06/21 15:36:07;;;;;;;7.72;6.38;;;;;;;;;;5020092;28;20080;-67
2022/06/21 15:38:45;;;;;;;8.90;6.93;;;;;;;;;;5032467;28;20479;-67
2022/06/21 15:41:15;;;;;;;10.18;9.27;;;;;;;;;;5017675;28;20658;-67
2022/06/21 15:43:41;;;;;;;6.35;3.45;;;;;;;;;;5018247;28;20057;-67
2022/06/21 15:46:21;;;;;;;6.80;3.95;;;;;;;;;;5017695;28;20046;-68
2022/06/21 15:51:48;;;;;;;6.90;3.78;;;;;;;;;;5016661;28;20049;-67
2022/06/21 15:54:20;;;;;;;6.20;3.25;;;;;;;;;;5019591;28;20124;-67
2022/06/21 15:57:13;;;;;;;4.60;3.10;;;;;;;;;;5021071;28;20050;-67
2022/06/21 15:59:50;;;;;;;6.60;3.28;;;;;;;;;;5006593;28;20042;-68
2022/06/21 16:02:38;;;;;;;29.83;26.67;;;;;;;;;;5020336;28;20053;-68
2022/06/21 16:05:21;;;;;;;12.73;11.30;;;;;;;;;;5022644;28;20641;-67
2022/06/21 16:08:14;;;;;;;18.52;15.45;;;;;;;;;;5040071;28;20056;-68
2022/06/21 16:10:42;;;;;;;23.10;20.60;;;;;;;;;;5027919;28;20046;-67
2022/06/21 16:13:10;;;;;;;6.50;4.65;;;;;;;;;;5035753;28;20046;-67
2022/06/21 16:15:42;;;;;;;6.25;4.18;;;;;;;;;;5049474;28;20050;-67